CheckWX is a tool to help pilots better visualize weather data.  It is not intended as a substitute for an official pre-flight weather briefing.

06:50:20 UTC

KADC METAR
Wadena Municipal Airport
Wadena, Minnesota, USA
Current

55 mins ago

KADC 210555Z AUTO 00000KT 10SM CLR 06/04 A3011 RMK AO2
Observed
May-21 @ 05:55 UTC
Visibility
10 SM
Flight Rules
VFR
Cloud Levels
  • Clear skies
Temperature
C / 43°F
Dewpoint
C / 39°F
Humidity
87%
Altimeter
30.11" Hg
Pressure
1019.62 hPa
Previous

2 hours ago

KADC 210455Z AUTO 00000KT 10SM CLR 07/03 A3010 RMK AO2
Observed
May-21 @ 04:55 UTC
Visibility
10 SM
Flight Rules
VFR
Cloud Levels
  • Clear skies
Temperature
C / 45°F
Dewpoint
C / 37°F
Humidity
76%
Altimeter
30.1" Hg
Pressure
1019.32 hPa
Previous

3 hours ago

KADC 210355Z AUTO 00000KT 10SM CLR 09/04 A3011 RMK AO2
Observed
May-21 @ 03:55 UTC
Visibility
10 SM
Flight Rules
VFR
Cloud Levels
  • Clear skies
Temperature
C / 48°F
Dewpoint
C / 39°F
Humidity
71%
Altimeter
30.11" Hg
Pressure
1019.62 hPa